Time;durP1;ratioP1;P1;durP2;ratioP2;P2;SDS_P1;SDS_P2;PMS_P1;PMS_P2;Temp;Humidity;BMP_temperature;BMP_pressure;BME280_temperature;BME280_humidity;BME280_pressure;Samples;Min_cycle;Max_cycle;Signal;HPM_P1;HPM_P2
2021/12/13 00:00:46;;;;;;;7.10;3.25;;;8.80;70.80;;;;;;6227560;28;20077;-79
2021/12/13 00:03:56;;;;;;;6.03;2.65;;;8.80;71.60;;;;;;6226427;28;20077;-80
2021/12/13 00:07:03;;;;;;;5.07;2.60;;;8.80;70.90;;;;;;6227160;28;20127;-81
2021/12/13 00:10:11;;;;;;;10.57;3.13;;;8.90;71.10;;;;;;6226206;28;20121;-80
2021/12/13 00:13:18;;;;;;;5.30;2.97;;;8.90;71.00;;;;;;6225315;28;20038;-81
2021/12/13 00:16:24;;;;;;;6.57;3.03;;;8.90;71.00;;;;;;6220977;28;20042;-80
2021/12/13 00:19:34;;;;;;;12.00;3.78;;;9.00;71.10;;;;;;6220024;28;20070;-81
2021/12/13 00:22:38;;;;;;;6.18;3.25;;;8.90;71.00;;;;;;6227243;28;20042;-80
2021/12/13 00:25:44;;;;;;;6.97;3.30;;;8.90;71.00;;;;;;6226056;28;20060;-80
2021/12/13 00:28:46;;;;;;;5.53;2.53;;;9.00;71.10;;;;;;6225371;28;20418;-81
2021/12/13 00:32:00;;;;;;;6.00;2.95;;;9.00;71.10;;;;;;6225952;28;20675;-81
2021/12/13 00:35:08;;;;;;;6.65;3.17;;;9.00;71.00;;;;;;6226376;28;20045;-81
2021/12/13 00:38:13;;;;;;;6.60;2.88;;;9.00;71.10;;;;;;6225828;28;20173;-81
2021/12/13 00:41:21;;;;;;;6.03;3.05;;;9.00;70.80;;;;;;6225548;28;20107;-81
2021/12/13 00:44:25;;;;;;;8.13;2.83;;;8.90;71.00;;;;;;6226755;28;20053;-80
2021/12/13 00:47:31;;;;;;;6.45;2.60;;;8.80;70.70;;;;;;6225835;28;20054;-81
2021/12/13 00:50:37;;;;;;;5.78;2.63;;;8.80;70.80;;;;;;6226567;28;20056;-81
2021/12/13 00:53:43;;;;;;;6.20;3.53;;;8.70;71.00;;;;;;6226355;28;20045;-81
2021/12/13 00:57:30;;;;;;;5.20;3.22;;;8.70;71.00;;;;;;6225973;28;20056;-81
2021/12/13 01:00:37;;;;;;;25.83;5.95;;;8.70;70.90;;;;;;6210994;28;20046;-81
2021/12/13 01:03:46;;;;;;;4.23;2.07;;;8.60;71.30;;;;;;6231755;28;20058;-81
2021/12/13 01:07:34;;;;;;;13.80;3.30;;;8.60;71.60;;;;;;6229092;28;20060;-81
2021/12/13 01:11:15;;;;;;;9.60;3.63;;;8.60;71.70;;;;;;6227300;28;20076;-81
2021/12/13 01:14:41;;;;;;;11.40;3.42;;;8.60;71.70;;;;;;6229460;28;20065;-80
2021/12/13 01:17:54;;;;;;;8.27;3.40;;;8.70;72.00;;;;;;6220151;28;20042;-79
2021/12/13 01:21:10;;;;;;;7.78;2.88;;;8.70;71.60;;;;;;6224022;28;20061;-80
2021/12/13 01:24:20;;;;;;;13.95;2.90;;;8.70;71.30;;;;;;6225942;28;20668;-81
2021/12/13 01:27:31;;;;;;;4.85;2.53;;;8.70;71.30;;;;;;6218781;28;20475;-80
2021/12/13 01:30:36;;;;;;;4.47;3.63;;;8.70;71.30;;;;;;6226354;28;20416;-80
2021/12/13 01:33:43;;;;;;;8.15;3.38;;;8.60;72.70;;;;;;6226346;28;20053;-80
2021/12/13 01:36:59;;;;;;;9.27;3.03;;;8.60;73.60;;;;;;6226018;28;20539;-80
2021/12/13 01:40:11;;;;;;;7.32;2.90;;;8.60;74.20;;;;;;6225785;28;20053;-81
2021/12/13 01:43:16;;;;;;;6.85;3.17;;;8.50;74.70;;;;;;6226595;28;20121;-80
2021/12/13 01:46:19;;;;;;;4.32;2.50;;;8.50;75.20;;;;;;6225043;28;20073;-79
2021/12/13 01:49:28;;;;;;;5.03;2.40;;;8.40;74.90;;;;;;6225030;28;20056;-81
2021/12/13 01:52:32;;;;;;;9.00;2.60;;;8.40;74.90;;;;;;6225775;28;20427;-81
2021/12/13 01:55:39;;;;;;;7.28;3.08;;;8.40;75.60;;;;;;6225608;28;20060;-81
2021/12/13 01:58:44;;;;;;;8.38;2.97;;;8.40;74.70;;;;;;6225631;28;20057;-81
2021/12/13 02:01:45;;;;;;;5.32;2.75;;;8.40;74.50;;;;;;6226309;28;20419;-81
2021/12/13 02:04:59;;;;;;;12.60;3.63;;;8.40;74.60;;;;;;6225052;28;20042;-81
2021/12/13 02:08:06;;;;;;;8.02;3.05;;;8.40;74.70;;;;;;6224664;28;20503;-81
2021/12/13 02:11:09;;;;;;;7.38;2.70;;;8.40;74.90;;;;;;6227384;28;20089;-81
2021/12/13 02:14:16;;;;;;;10.52;2.60;;;8.50;75.20;;;;;;6229851;28;20065;-80
2021/12/13 02:17:20;;;;;;;7.38;3.60;;;8.50;75.50;;;;;;6229189;28;20045;-80
2021/12/13 02:20:29;;;;;;;7.95;3.60;;;8.40;75.70;;;;;;6215605;28;20120;-81
2021/12/13 02:23:35;;;;;;;4.55;2.60;;;8.50;76.00;;;;;;6205368;28;20053;-81
2021/12/13 02:26:41;;;;;;;5.70;3.08;;;8.50;76.30;;;;;;6205927;28;20054;-81
2021/12/13 02:29:43;;;;;;;10.00;2.83;;;8.50;76.40;;;;;;6204796;28;20057;-80
2021/12/13 02:32:47;;;;;;;8.23;2.47;;;8.50;76.50;;;;;;6205640;28;20054;-82
2021/12/13 02:35:56;;;;;;;4.63;3.28;;;8.50;76.80;;;;;;6205514;28;20496;-80
2021/12/13 02:39:05;;;;;;;4.85;2.42;;;8.50;77.40;;;;;;6205144;28;20104;-79
2021/12/13 02:42:09;;;;;;;5.82;2.45;;;8.50;76.80;;;;;;6204741;28;20105;-80
2021/12/13 02:45:17;;;;;;;5.10;2.65;;;8.50;76.70;;;;;;6204770;28;20129;-80
2021/12/13 02:48:24;;;;;;;6.28;2.90;;;8.50;76.70;;;;;;6205538;28;20584;-80
2021/12/13 02:51:31;;;;;;;8.27;3.25;;;8.40;76.50;;;;;;6204854;28;20054;-80
2021/12/13 02:54:38;;;;;;;7.38;2.67;;;8.50;76.90;;;;;;6205299;28;20039;-79
2021/12/13 02:57:45;;;;;;;8.85;3.30;;;8.40;76.90;;;;;;6204863;28;20055;-80
2021/12/13 03:00:54;;;;;;;4.47;2.63;;;8.40;77.00;;;;;;6204652;28;20050;-79
2021/12/13 03:04:01;;;;;;;6.70;2.72;;;8.40;77.10;;;;;;6204704;28;20408;-80
2021/12/13 03:07:09;;;;;;;6.40;2.92;;;8.50;77.10;;;;;;6205273;28;20052;-80
2021/12/13 03:10:17;;;;;;;7.35;3.10;;;8.50;76.60;;;;;;6204850;28;20121;-81
2021/12/13 03:13:20;;;;;;;6.47;3.17;;;8.40;76.40;;;;;;6205430;28;20050;-80
2021/12/13 03:16:27;;;;;;;7.57;3.65;;;8.50;76.50;;;;;;6205367;28;20056;-80
2021/12/13 03:19:44;;;;;;;4.53;2.63;;;8.50;76.20;;;;;;6204931;28;20110;-81
2021/12/13 03:23:23;;;;;;;3.58;2.17;;;8.50;75.90;;;;;;6204634;28;20614;-81
2021/12/13 03:26:47;;;;;;;5.83;3.13;;;8.60;75.60;;;;;;6205131;28;20046;-80
2021/12/13 03:29:58;;;;;;;5.40;2.97;;;8.60;75.40;;;;;;6205529;28;20512;-80
2021/12/13 03:33:04;;;;;;;11.02;3.42;;;8.60;75.40;;;;;;6205432;28;20101;-80
2021/12/13 03:36:10;;;;;;;6.55;2.92;;;8.60;75.40;;;;;;6204054;28;20046;-81
2021/12/13 03:39:15;;;;;;;5.85;3.05;;;8.60;75.50;;;;;;6204081;28;20054;-81
2021/12/13 03:42:21;;;;;;;6.97;2.72;;;8.60;75.10;;;;;;6204003;28;20213;-80
2021/12/13 03:45:26;;;;;;;12.52;3.63;;;8.60;75.10;;;;;;6207944;28;20130;-79
2021/12/13 03:48:29;;;;;;;6.30;3.03;;;8.60;75.10;;;;;;6216378;28;20468;-81
2021/12/13 03:51:35;;;;;;;8.02;2.78;;;8.60;74.90;;;;;;6204125;28;20136;-80
2021/12/13 03:54:39;;;;;;;8.73;3.45;;;8.50;74.90;;;;;;6203177;28;20057;-81
2021/12/13 03:57:48;;;;;;;8.70;3.55;;;8.50;75.00;;;;;;6202897;28;20570;-80
2021/12/13 04:00:57;;;;;;;9.65;3.40;;;8.50;75.20;;;;;;6202881;28;20491;-79
2021/12/13 04:04:01;;;;;;;5.97;3.17;;;8.50;75.40;;;;;;6202627;28;20042;-80
2021/12/13 04:07:09;;;;;;;4.72;2.88;;;8.50;75.20;;;;;;6202484;28;20057;-79
2021/12/13 04:10:16;;;;;;;6.97;2.67;;;8.40;75.20;;;;;;6202388;28;20046;-79
2021/12/13 04:13:23;;;;;;;7.93;3.05;;;8.40;75.40;;;;;;6202532;28;20038;-79
2021/12/13 04:16:33;;;;;;;5.80;3.78;;;8.40;75.40;;;;;;6202682;28;20046;-79
2021/12/13 04:19:49;;;;;;;8.35;2.60;;;8.40;75.10;;;;;;6203471;28;20054;-78
2021/12/13 04:22:55;;;;;;;9.52;3.25;;;8.40;75.40;;;;;;6213334;28;20136;-79
2021/12/13 04:26:01;;;;;;;5.50;2.97;;;8.40;75.70;;;;;;6203344;28;20046;-79
2021/12/13 04:29:04;;;;;;;7.07;2.88;;;8.30;76.00;;;;;;6202155;28;20057;-78
2021/12/13 04:32:15;;;;;;;12.90;4.10;;;8.20;76.40;;;;;;6202935;28;20496;-78
2021/12/13 04:35:19;;;;;;;6.68;3.33;;;8.20;76.90;;;;;;6209826;28;20161;-79
2021/12/13 04:38:25;;;;;;;6.40;2.97;;;8.20;77.00;;;;;;6235192;28;20052;-79
2021/12/13 04:41:31;;;;;;;9.07;3.80;;;8.10;76.90;;;;;;6226733;28;20065;-79
2021/12/13 04:44:39;;;;;;;6.60;3.00;;;8.00;77.10;;;;;;6226357;28;20423;-81
2021/12/13 04:47:48;;;;;;;;;;;8.00;77.30;;;;;;6226116;28;20746;-79
2021/12/13 04:50:53;;;;;;;5.85;3.28;;;8.00;77.10;;;;;;6227420;28;19921;-79
2021/12/13 04:53:59;;;;;;;8.68;2.78;;;8.00;76.80;;;;;;6226889;28;20045;-79
2021/12/13 04:57:02;;;;;;;8.73;2.75;;;8.00;76.80;;;;;;6226139;28;20049;-79
2021/12/13 05:00:10;;;;;;;6.63;3.53;;;8.10;76.80;;;;;;6226336;28;20419;-79
2021/12/13 05:03:14;;;;;;;6.05;2.83;;;8.20;76.40;;;;;;6226733;28;20543;-79
2021/12/13 05:06:29;;;;;;;8.90;3.03;;;8.30;76.20;;;;;;6226701;28;20051;-79
2021/12/13 05:09:31;;;;;;;8.38;3.03;;;8.30;76.10;;;;;;6226696;28;20056;-80
2021/12/13 05:12:33;;;;;;;10.25;3.05;;;8.30;76.10;;;;;;6226540;28;20049;-79
2021/12/13 05:15:40;;;;;;;5.55;2.90;;;8.30;76.00;;;;;;6225640;28;20045;-79
2021/12/13 05:18:46;;;;;;;8.63;3.47;;;8.40;76.40;;;;;;6227326;28;20057;-80
2021/12/13 05:21:50;;;;;;;6.90;3.75;;;8.40;76.50;;;;;;6225927;28;20180;-79
2021/12/13 05:24:58;;;;;;;6.95;3.10;;;8.40;76.50;;;;;;6219416;28;20606;-80
2021/12/13 05:28:04;;;;;;;7.20;2.95;;;8.50;76.50;;;;;;6226540;28;20058;-80
2021/12/13 05:31:10;;;;;;;7.10;2.85;;;8.50;76.60;;;;;;6227579;28;20109;-79
2021/12/13 05:34:12;;;;;;;7.72;2.75;;;8.50;76.50;;;;;;6226884;28;20042;-80
2021/12/13 05:37:14;;;;;;;8.63;3.85;;;8.40;76.60;;;;;;6225606;28;20050;-79
2021/12/13 05:40:18;;;;;;;7.93;3.03;;;8.40;76.80;;;;;;6226359;28;20133;-79
2021/12/13 05:43:24;;;;;;;16.85;3.45;;;8.20;77.00;;;;;;6226689;28;20129;-79
2021/12/13 05:46:36;;;;;;;6.60;3.15;;;8.10;77.40;;;;;;6228519;28;20053;-79
2021/12/13 05:49:44;;;;;;;5.93;2.28;;;7.90;77.80;;;;;;6229835;28;20045;-79
2021/12/13 05:52:46;;;;;;;10.65;2.80;;;7.80;78.30;;;;;;6231081;28;20048;-79
2021/12/13 05:55:53;;;;;;;3.97;2.60;;;7.60;78.70;;;;;;6230475;28;20053;-79
2021/12/13 05:58:57;;;;;;;8.73;2.67;;;7.60;78.80;;;;;;6231014;28;20054;-79
2021/12/13 06:02:11;;;;;;;8.35;3.55;;;7.60;79.00;;;;;;6230330;28;20049;-79
2021/12/13 06:05:18;;;;;;;4.15;2.60;;;7.50;79.00;;;;;;6229100;28;20054;-79
2021/12/13 06:08:22;;;;;;;7.57;2.95;;;7.50;79.30;;;;;;6229874;28;20125;-78
2021/12/13 06:11:32;;;;;;;5.20;2.28;;;7.40;79.50;;;;;;6229253;28;20128;-79
2021/12/13 06:14:34;;;;;;;4.15;2.60;;;7.40;79.80;;;;;;6229688;28;20407;-79
2021/12/13 06:17:43;;;;;;;6.38;2.70;;;7.40;79.90;;;;;;6229449;28;20050;-79
2021/12/13 06:20:54;;;;;;;9.88;3.05;;;7.50;79.80;;;;;;6229280;28;20049;-78
2021/12/13 06:23:56;;;;;;;5.03;2.83;;;7.60;79.50;;;;;;6220164;28;20056;-79
2021/12/13 06:27:08;;;;;;;4.13;2.67;;;7.80;79.40;;;;;;6229625;28;20547;-79
2021/12/13 06:30:19;;;;;;;7.20;3.78;;;7.90;79.10;;;;;;6229777;28;20496;-79
2021/12/13 06:33:22;;;;;;;9.38;3.25;;;7.90;78.90;;;;;;6229014;28;20523;-79
2021/12/13 06:36:28;;;;;;;5.90;3.33;;;7.90;78.80;;;;;;6228681;28;20046;-79
2021/12/13 06:39:31;;;;;;;5.50;2.55;;;7.80;78.80;;;;;;6228185;28;20527;-80
2021/12/13 06:42:33;;;;;;;6.13;3.00;;;7.70;79.20;;;;;;6230149;28;20046;-79
2021/12/13 06:45:36;;;;;;;5.97;2.58;;;7.60;79.40;;;;;;6227325;28;20050;-78
2021/12/13 06:48:44;;;;;;;6.78;2.40;;;7.70;79.80;;;;;;6228888;28;20149;-79
2021/12/13 06:51:51;;;;;;;10.75;2.90;;;7.70;80.00;;;;;;6228080;28;20068;-79
2021/12/13 06:54:57;;;;;;;6.60;2.80;;;7.70;79.90;;;;;;6229597;28;20049;-79
2021/12/13 06:58:00;;;;;;;7.60;2.97;;;7.70;79.80;;;;;;6228235;28;20057;-79
2021/12/13 07:01:07;;;;;;;6.70;3.50;;;7.90;80.40;;;;;;6228340;28;20046;-79
2021/12/13 07:04:13;;;;;;;10.27;2.92;;;7.80;80.10;;;;;;6228704;28;20192;-79
2021/12/13 07:07:17;;;;;;;5.28;2.55;;;7.90;80.20;;;;;;6228290;28;20054;-79
2021/12/13 07:10:22;;;;;;;6.82;2.92;;;7.90;80.50;;;;;;6227158;28;20496;-79
2021/12/13 07:13:27;;;;;;;9.10;3.08;;;7.90;80.30;;;;;;6228552;28;20096;-80
2021/12/13 07:16:32;;;;;;;14.55;3.22;;;7.90;80.50;;;;;;6227500;28;20092;-79
2021/12/13 07:19:35;;;;;;;6.63;3.42;;;7.80;80.20;;;;;;6228033;28;20085;-78
2021/12/13 07:22:37;;;;;;;7.32;3.75;;;7.90;80.20;;;;;;6227953;28;20046;-79
2021/12/13 07:25:41;;;;;;;12.43;5.57;;;8.00;80.10;;;;;;6206375;28;20488;-79
2021/12/13 07:28:44;;;;;;;5.82;2.38;;;8.00;79.90;;;;;;6203572;28;20101;-79
2021/12/13 07:32:00;;;;;;;8.05;1.95;;;8.10;79.80;;;;;;6203659;28;20065;-79
2021/12/13 07:35:08;;;;;;;9.57;4.15;;;8.10;79.60;;;;;;6202914;28;20524;-79
2021/12/13 07:38:12;;;;;;;6.40;2.95;;;8.10;79.30;;;;;;6178218;28;20050;-79
2021/12/13 07:41:14;;;;;;;7.82;3.83;;;8.10;79.50;;;;;;6203477;28;20050;-79
2021/12/13 07:44:38;;;;;;;7.50;2.95;;;8.10;79.40;;;;;;6203333;28;20709;-78
2021/12/13 07:47:43;;;;;;;5.55;2.20;;;8.20;79.50;;;;;;6202745;28;20528;-79
2021/12/13 07:50:58;;;;;;;9.98;3.05;;;8.20;79.50;;;;;;6203773;28;20137;-78
2021/12/13 07:54:04;;;;;;;11.80;2.70;;;8.20;79.60;;;;;;6202566;28;20177;-79
2021/12/13 07:57:17;;;;;;;8.88;3.85;;;8.30;79.50;;;;;;6202341;28;20046;-79
2021/12/13 08:00:22;;;;;;;7.45;3.80;;;8.40;79.40;;;;;;6203756;28;20136;-79
2021/12/13 08:03:26;;;;;;;8.25;4.07;;;8.50;79.40;;;;;;6203599;28;20057;-79
2021/12/13 08:06:35;;;;;;;12.75;4.18;;;8.60;79.20;;;;;;6203474;28;20039;-80
2021/12/13 08:09:43;;;;;;;7.72;4.60;;;8.60;79.10;;;;;;6204105;28;20073;-80
2021/12/13 08:12:48;;;;;;;;;;;8.70;79.10;;;;;;6204517;28;20057;-80
2021/12/13 08:15:53;;;;;;;12.23;4.93;;;8.80;79.00;;;;;;6201144;28;19928;-82
2021/12/13 08:19:06;;;;;;;13.70;6.57;;;8.80;78.70;;;;;;6201706;28;20118;-80
2021/12/13 08:22:17;;;;;;;16.45;6.80;;;8.90;79.50;;;;;;6200480;28;20042;-81
2021/12/13 08:25:22;;;;;;;16.40;5.60;;;8.90;78.90;;;;;;6195188;28;20122;-80
2021/12/13 08:31:57;;;;;;;13.02;6.95;;;9.10;79.00;;;;;;6196161;28;20046;-79
2021/12/13 08:35:00;;;;;;;20.55;7.40;;;9.10;79.00;;;;;;6201872;28;20046;-79
2021/12/13 08:38:03;;;;;;;17.35;7.13;;;9.20;79.20;;;;;;6201032;28;20046;-81
2021/12/13 08:41:21;;;;;;;16.17;7.28;;;9.30;79.10;;;;;;6201368;28;20048;-79
2021/12/13 08:44:26;;;;;;;14.77;7.28;;;9.40;79.10;;;;;;6201259;28;20043;-81
2021/12/13 08:47:35;;;;;;;44.92;8.52;;;9.50;78.90;;;;;;6200990;28;20050;-79
2021/12/13 08:50:40;;;;;;;15.60;6.47;;;9.60;78.70;;;;;;6200397;28;20049;-80
2021/12/13 08:53:49;;;;;;;21.88;6.72;;;9.70;78.40;;;;;;6200273;28;20128;-81
2021/12/13 08:56:52;;;;;;;16.05;6.50;;;9.90;78.30;;;;;;6200718;28;20057;-81
2021/12/13 08:59:55;;;;;;;13.15;6.47;;;10.00;77.90;;;;;;6199929;28;20562;-79
2021/12/13 09:03:01;;;;;;;16.50;5.07;;;10.10;77.60;;;;;;6200655;28;20526;-80
2021/12/13 09:06:22;;;;;;;17.70;7.22;;;10.20;77.90;;;;;;6200987;28;20046;-79
2021/12/13 09:09:26;;;;;;;14.90;5.65;;;10.30;77.00;;;;;;6188235;28;20058;-79
2021/12/13 09:12:33;;;;;;;9.02;4.90;;;10.40;76.50;;;;;;6200496;28;20052;-80
2021/12/13 09:15:35;;;;;;;11.52;5.63;;;10.50;76.00;;;;;;6202847;28;20077;-79
2021/12/13 09:18:38;;;;;;;12.57;4.93;;;10.70;76.00;;;;;;6201292;28;20427;-79
2021/12/13 09:22:02;;;;;;;16.27;5.65;;;10.80;75.40;;;;;;6203521;28;20544;-79
2021/12/13 09:25:10;;;;;;;9.68;4.60;;;10.90;75.10;;;;;;6201477;28;20049;-81
2021/12/13 09:28:16;;;;;;;8.80;4.60;;;11.10;74.30;;;;;;6184905;28;20043;-80
2021/12/13 09:31:22;;;;;;;9.30;4.93;;;11.10;73.00;;;;;;6182023;28;20065;-81
2021/12/13 09:34:24;;;;;;;15.20;5.95;;;11.20;73.10;;;;;;6181120;28;20053;-81
2021/12/13 09:37:33;;;;;;;11.50;4.90;;;11.20;73.10;;;;;;6200816;28;20069;-79
2021/12/13 09:40:40;;;;;;;11.85;5.20;;;11.30;72.60;;;;;;6206542;28;20056;-80
2021/12/13 09:43:48;;;;;;;10.77;4.95;;;11.40;72.30;;;;;;6205222;28;20057;-80
2021/12/13 09:46:52;;;;;;;13.23;5.25;;;11.60;72.40;;;;;;6205564;28;20449;-80
2021/12/13 09:50:06;;;;;;;10.60;5.15;;;11.80;72.10;;;;;;6206660;28;20050;-79
2021/12/13 09:53:11;;;;;;;11.00;5.15;;;12.10;71.40;;;;;;6206355;28;20046;-80
2021/12/13 09:56:16;;;;;;;11.52;4.45;;;12.50;70.20;;;;;;6205939;28;20057;-80
2021/12/13 09:59:24;;;;;;;5.95;3.22;;;12.70;68.90;;;;;;6208819;28;20112;-80
2021/12/13 10:02:32;;;;;;;6.13;3.88;;;12.90;68.30;;;;;;6206596;28;20050;-80
2021/12/13 10:05:38;;;;;;;10.40;4.32;;;13.00;67.60;;;;;;6205955;28;20055;-81
2021/12/13 10:08:43;;;;;;;8.43;4.10;;;13.00;67.40;;;;;;6206812;28;20133;-80
2021/12/13 10:11:50;;;;;;;7.97;3.55;;;13.00;66.90;;;;;;6206351;28;20056;-82
2021/12/13 10:14:55;;;;;;;11.80;4.55;;;13.10;66.80;;;;;;6203296;28;20419;-80
2021/12/13 10:18:01;;;;;;;11.65;5.22;;;13.20;66.20;;;;;;6204058;28;20054;-82
2021/12/13 10:21:07;;;;;;;9.57;4.63;;;13.40;65.40;;;;;;6204183;28;20053;-82
2021/12/13 10:24:19;;;;;;;8.75;4.25;;;13.60;64.90;;;;;;6203934;28;20133;-81
2021/12/13 10:27:23;;;;;;;11.48;4.63;;;14.00;63.80;;;;;;6195127;28;20042;-81
2021/12/13 10:30:29;;;;;;;11.20;5.50;;;14.20;62.90;;;;;;6183270;28;20054;-81
2021/12/13 10:33:33;;;;;;;15.50;5.82;;;14.40;62.70;;;;;;6177648;28;20129;-81
2021/12/13 10:36:37;;;;;;;9.32;4.30;;;14.60;62.20;;;;;;6184484;28;20748;-81
2021/12/13 10:39:43;;;;;;;11.60;4.35;;;14.70;61.70;;;;;;6207873;28;20072;-81
2021/12/13 10:42:50;;;;;;;12.43;4.70;;;14.90;61.40;;;;;;6226355;28;20050;-82
2021/12/13 10:46:02;;;;;;;8.77;3.83;;;15.40;60.50;;;;;;6227973;28;20132;-82
2021/12/13 10:49:08;;;;;;;7.13;3.92;;;15.80;59.70;;;;;;6228099;28;20049;-81
2021/12/13 10:52:16;;;;;;;10.95;3.83;;;16.00;58.20;;;;;;6228358;28;20134;-82
2021/12/13 10:55:23;;;;;;;9.27;3.50;;;16.30;57.50;;;;;;6227872;28;20105;-81
2021/12/13 10:58:30;;;;;;;8.57;3.57;;;16.30;57.00;;;;;;6227693;28;20069;-81
2021/12/13 11:01:35;;;;;;;5.05;3.22;;;16.20;57.00;;;;;;6227398;28;20050;-81
2021/12/13 11:04:41;;;;;;;7.35;3.67;;;16.10;57.00;;;;;;6226669;28;20689;-82
2021/12/13 11:07:45;;;;;;;13.98;3.78;;;16.30;57.20;;;;;;6213308;28;20465;-82
2021/12/13 11:10:51;;;;;;;8.52;3.95;;;16.40;56.20;;;;;;6206484;28;20672;-82
2021/12/13 11:13:57;;;;;;;8.20;3.38;;;16.60;55.80;;;;;;6207282;28;20088;-82
2021/12/13 11:17:07;;;;;;;9.98;3.45;;;16.80;55.40;;;;;;6206524;28;20061;-82
2021/12/13 11:20:13;;;;;;;5.72;2.90;;;17.20;54.70;;;;;;6205428;28;20105;-82
2021/12/13 11:23:17;;;;;;;6.25;2.88;;;17.50;54.00;;;;;;6205176;28;20045;-82
2021/12/13 11:26:22;;;;;;;10.82;3.33;;;17.80;53.80;;;;;;6203299;28;20129;-82
2021/12/13 11:29:25;;;;;;;5.35;2.53;;;18.10;52.70;;;;;;6202593;28;20054;-82
2021/12/13 11:33:06;;;;;;;6.88;2.45;;;17.80;52.50;;;;;;6203679;28;20070;-81
2021/12/13 11:36:44;;;;;;;10.93;2.70;;;17.70;53.00;;;;;;6152252;28;20046;-82
2021/12/13 11:40:11;;;;;;;12.43;2.60;;;17.50;53.60;;;;;;6203951;28;21195;-82
2021/12/13 11:43:28;;;;;;;10.40;4.32;;;17.30;54.20;;;;;;6203783;28;20162;-82
2021/12/13 11:46:53;;;;;;;13.10;4.55;;;17.00;55.30;;;;;;6202949;28;20137;-82
2021/12/13 11:50:20;;;;;;;10.45;4.72;;;16.70;56.20;;;;;;6202796;28;20073;-81
2021/12/13 11:54:04;;;;;;;15.65;4.00;;;16.30;57.00;;;;;;6204105;28;20043;-83
2021/12/13 11:57:49;;;;;;;8.23;4.28;;;16.10;57.90;;;;;;6128365;28;20052;-81
2021/12/13 12:01:28;;;;;;;11.15;3.70;;;15.90;58.60;;;;;;6145952;28;20048;-81
2021/12/13 12:05:25;;;;;;;9.75;4.05;;;15.90;58.80;;;;;;6201638;28;20049;-82
2021/12/13 12:08:54;;;;;;;11.70;4.97;;;15.80;58.90;;;;;;6127668;29;20046;-81
2021/12/13 12:12:17;;;;;;;11.82;4.28;;;15.70;59.60;;;;;;6132446;28;20572;-82
2021/12/13 12:15:21;;;;;;;10.32;4.75;;;15.60;60.20;;;;;;6201199;28;20053;-81
2021/12/13 12:18:23;;;;;;;8.02;3.95;;;15.60;60.50;;;;;;6201336;28;20484;-82
2021/12/13 12:21:36;;;;;;;6.63;3.95;;;15.60;60.40;;;;;;6201729;28;20129;-80
2021/12/13 12:24:42;;;;;;;10.00;4.72;;;15.60;60.90;;;;;;6201562;28;20050;-79
2021/12/13 12:27:44;;;;;;;7.03;3.85;;;15.60;61.50;;;;;;6201639;28;20046;-81
2021/12/13 12:30:49;;;;;;;9.70;4.20;;;15.70;61.60;;;;;;6202812;28;20046;-81
2021/12/13 12:33:58;;;;;;;11.70;4.53;;;15.60;61.50;;;;;;6203290;28;20120;-80
2021/12/13 12:37:45;;;;;;;8.93;4.10;;;15.60;61.50;;;;;;6200906;28;20504;-80
2021/12/13 12:40:58;;;;;;;8.45;4.13;;;15.70;61.50;;;;;;6165146;28;20796;-83
2021/12/13 12:44:00;;;;;;;6.72;3.38;;;15.60;61.20;;;;;;6225658;28;20046;-83
2021/12/13 12:47:02;;;;;;;5.35;2.50;;;15.50;61.10;;;;;;6203195;28;20153;-83
2021/12/13 12:50:13;;;;;;;7.07;2.50;;;15.40;61.40;;;;;;6201699;28;20046;-83
2021/12/13 12:53:18;;;;;;;6.90;3.58;;;15.30;62.00;;;;;;6197724;28;20435;-81
2021/12/13 12:56:27;;;;;;;8.13;3.78;;;15.30;61.60;;;;;;6199144;28;20065;-82
2021/12/13 12:59:32;;;;;;;7.57;3.47;;;15.30;62.00;;;;;;6201348;28;20046;-81
2021/12/13 13:02:34;;;;;;;10.75;3.15;;;15.30;62.00;;;;;;6200016;28;20050;-82
2021/12/13 13:05:36;;;;;;;8.52;3.03;;;15.20;62.10;;;;;;6200622;28;20049;-80
2021/12/13 13:08:41;;;;;;;4.90;2.50;;;15.20;62.30;;;;;;6204603;28;20046;-81
2021/12/13 13:11:46;;;;;;;5.78;2.53;;;15.20;62.40;;;;;;6203899;28;20408;-82
2021/12/13 13:14:52;;;;;;;5.05;3.08;;;15.10;62.70;;;;;;6202644;28;20140;-81
2021/12/13 13:18:00;;;;;;;7.43;3.42;;;15.10;63.00;;;;;;6205856;28;20463;-81
2021/12/13 13:21:04;;;;;;;7.18;3.25;;;15.00;63.40;;;;;;6202390;28;20124;-81
2021/12/13 13:24:06;;;;;;;9.13;3.38;;;15.00;63.60;;;;;;6202112;28;20582;-81
2021/12/13 13:27:11;;;;;;;9.20;2.92;;;14.90;64.00;;;;;;6202367;28;20048;-80
2021/12/13 13:30:18;;;;;;;11.70;2.67;;;14.90;63.80;;;;;;6193559;28;20047;-78
2021/12/13 13:33:31;;;;;;;7.53;3.30;;;14.80;64.50;;;;;;6179799;28;20053;-81
2021/12/13 13:36:37;;;;;;;8.48;2.15;;;14.60;64.30;;;;;;6184880;28;20461;-80
2021/12/13 13:39:43;;;;;;;3.67;1.48;;;14.40;64.90;;;;;;6202312;28;20058;-82
2021/12/13 13:42:49;;;;;;;2.88;1.58;;;14.10;65.40;;;;;;6203881;28;20077;-82
2021/12/13 13:45:55;;;;;;;6.07;1.70;;;13.90;66.50;;;;;;6202444;28;20051;-82
2021/12/13 13:49:02;;;;;;;4.30;1.35;;;13.80;67.40;;;;;;6202241;28;20054;-83
2021/12/13 13:52:29;;;;;;;7.38;1.63;;;13.70;67.50;;;;;;6202028;28;20050;-81
2021/12/13 13:55:35;;;;;;;5.10;1.73;;;13.70;68.10;;;;;;6191966;28;20106;-82
2021/12/13 13:58:42;;;;;;;3.90;1.95;;;13.50;68.00;;;;;;6201760;28;20051;-83
2021/12/13 14:01:48;;;;;;;3.80;2.00;;;13.20;68.80;;;;;;6201835;28;20057;-82
2021/12/13 14:04:57;;;;;;;5.55;2.63;;;13.10;69.40;;;;;;6200808;28;20572;-82
2021/12/13 14:07:59;;;;;;;6.65;1.95;;;13.00;70.10;;;;;;6205295;28;20034;-82
2021/12/13 14:11:04;;;;;;;7.45;2.10;;;13.00;70.60;;;;;;6198554;28;20074;-82
2021/12/13 14:14:08;;;;;;;5.13;2.33;;;13.20;70.40;;;;;;6190768;28;20057;-80
2021/12/13 14:17:10;;;;;;;6.40;2.72;;;13.30;69.80;;;;;;6205602;28;20092;-82
2021/12/13 14:20:29;;;;;;;10.82;3.67;;;13.30;69.80;;;;;;6208543;28;20046;-81
2021/12/13 14:23:34;;;;;;;4.13;2.28;;;13.30;70.20;;;;;;6205619;28;20388;-82
2021/12/13 14:26:36;;;;;;;7.45;2.13;;;13.10;70.40;;;;;;6204992;28;20110;-81
2021/12/13 14:29:39;;;;;;;5.80;2.85;;;12.90;71.40;;;;;;6205861;28;20050;-81
2021/12/13 14:32:41;;;;;;;14.60;4.22;;;12.80;71.80;;;;;;6201687;28;20055;-80
2021/12/13 14:35:43;;;;;;;7.07;2.63;;;12.90;72.10;;;;;;6205473;28;20042;-82
2021/12/13 14:38:49;;;;;;;6.32;2.75;;;12.90;72.10;;;;;;6205708;28;20042;-81
2021/12/13 14:41:56;;;;;;;4.90;2.90;;;13.00;72.10;;;;;;6204036;28;20042;-81
2021/12/13 14:45:05;;;;;;;8.27;4.50;;;13.00;72.00;;;;;;6204256;28;20431;-82
2021/12/13 14:48:07;;;;;;;6.25;3.30;;;13.00;72.10;;;;;;6205386;28;20512;-82
2021/12/13 14:51:11;;;;;;;8.77;2.38;;;13.10;72.10;;;;;;6206281;28;20046;-82
2021/12/13 14:54:16;;;;;;;6.28;2.50;;;13.10;72.20;;;;;;6205467;28;20134;-83
2021/12/13 14:57:22;;;;;;;9.77;2.80;;;13.10;72.10;;;;;;6204234;28;20049;-81
2021/12/13 15:00:29;;;;;;;4.63;2.80;;;13.00;72.00;;;;;;6204440;28;20051;-79
2021/12/13 15:03:34;;;;;;;6.55;2.55;;;13.00;72.30;;;;;;6206195;28;20189;-80
2021/12/13 15:06:40;;;;;;;7.45;3.22;;;12.80;72.80;;;;;;6209391;28;20042;-79
2021/12/13 15:09:46;;;;;;;9.13;2.28;;;12.70;73.30;;;;;;6205142;28;20046;-81
2021/12/13 15:12:50;;;;;;;10.23;3.50;;;12.60;73.70;;;;;;6204528;28;20050;-81
2021/12/13 15:15:56;;;;;;;5.28;1.70;;;12.50;74.10;;;;;;6205430;28;20049;-82
2021/12/13 15:18:58;;;;;;;5.90;2.42;;;12.40;74.60;;;;;;6206049;28;20090;-80
2021/12/13 15:22:01;;;;;;;7.28;3.15;;;12.40;74.80;;;;;;6205684;28;20460;-83
2021/12/13 15:25:05;;;;;;;5.32;2.88;;;12.40;75.10;;;;;;6204767;28;20050;-82
2021/12/13 15:28:08;;;;;;;8.52;2.75;;;12.40;75.10;;;;;;6206026;28;20050;-80
2021/12/13 15:31:13;;;;;;;5.30;2.80;;;12.40;75.40;;;;;;6207995;28;20060;-81
2021/12/13 15:34:19;;;;;;;5.38;2.10;;;12.20;75.50;;;;;;6188922;28;20054;-80
2021/12/13 15:37:27;;;;;;;9.85;3.00;;;12.30;75.60;;;;;;6192286;28;20046;-80
2021/12/13 15:40:36;;;;;;;5.85;3.03;;;12.30;75.60;;;;;;6204401;28;20129;-80
2021/12/13 15:43:41;;;;;;;5.38;2.38;;;12.30;75.70;;;;;;6205981;28;20057;-83
2021/12/13 15:46:47;;;;;;;4.75;2.90;;;12.30;75.70;;;;;;6206266;28;20047;-81
2021/12/13 15:49:48;;;;;;;14.23;2.95;;;12.20;76.00;;;;;;6206713;28;20137;-80
2021/12/13 15:53:02;;;;;;;10.23;3.38;;;12.10;76.30;;;;;;6205175;28;20488;-81
2021/12/13 15:56:06;;;;;;;9.20;3.50;;;12.10;76.30;;;;;;6205132;28;20053;-79
2021/12/13 15:59:11;;;;;;;14.68;3.25;;;12.00;76.50;;;;;;6204975;28;20074;-82
2021/12/13 16:02:18;;;;;;;10.93;2.88;;;12.00;76.50;;;;;;6198339;28;20054;-81
2021/12/13 16:05:23;;;;;;;15.55;3.95;;;12.10;76.90;;;;;;6182539;28;20051;-80
2021/12/13 16:08:45;;;;;;;6.28;3.00;;;12.00;77.40;;;;;;6211122;28;20030;-80
2021/12/13 16:11:49;;;;;;;7.65;2.90;;;12.10;77.50;;;;;;6202900;28;20619;-79
2021/12/13 16:14:53;;;;;;;2.67;1.75;;;12.00;77.50;;;;;;6205775;28;20362;-80
2021/12/13 16:17:59;;;;;;;3.20;1.30;;;11.90;77.80;;;;;;6206594;28;20046;-80
2021/12/13 16:21:01;;;;;;;4.38;1.95;;;11.90;78.10;;;;;;6203691;28;20052;-80
2021/12/13 16:24:06;;;;;;;5.65;2.08;;;11.90;79.00;;;;;;6208578;28;20052;-80
2021/12/13 16:27:10;;;;;;;3.53;2.00;;;11.90;78.50;;;;;;6205777;28;20152;-79